Time;durP1;ratioP1;P1;durP2;ratioP2;P2;SDS_P1;SDS_P2;PMS_P1;PMS_P2;Temp;Humidity;BMP_temperature;BMP_pressure;BME280_temperature;BME280_humidity;BME280_pressure;Samples;Min_cycle;Max_cycle;Signal;HPM_P1;HPM_P2
2022/06/25 00:01:05;;;;;;;8.05;3.28;;;21.20;72.70;;;;;;5034932;28;20044;-65
2022/06/25 00:03:31;;;;;;;5.70;3.15;;;21.20;72.80;;;;;;5047099;28;20059;-66
2022/06/25 00:05:56;;;;;;;6.00;3.40;;;21.10;72.80;;;;;;5035093;28;20116;-66
2022/06/25 00:08:23;;;;;;;6.72;3.40;;;21.10;72.80;;;;;;5047927;28;20532;-66
2022/06/25 00:10:49;;;;;;;5.45;3.22;;;21.10;72.80;;;;;;5048480;28;20080;-66
2022/06/25 00:13:15;;;;;;;5.93;3.38;;;21.10;72.90;;;;;;5050028;28;20485;-66
2022/06/25 00:15:40;;;;;;;7.22;3.63;;;21.10;72.90;;;;;;5045236;28;20037;-66
2022/06/25 00:18:06;;;;;;;6.03;3.22;;;21.10;73.00;;;;;;5053110;28;20029;-66
2022/06/25 00:20:32;;;;;;;6.40;3.58;;;21.10;73.00;;;;;;5049247;28;20025;-66
2022/06/25 00:22:58;;;;;;;5.45;2.88;;;21.10;73.00;;;;;;5051615;28;20070;-65
2022/06/25 00:25:23;;;;;;;6.43;3.42;;;21.10;72.90;;;;;;5039087;28;20026;-66
2022/06/25 00:27:49;;;;;;;6.30;3.22;;;21.00;72.80;;;;;;5042903;28;20029;-65
2022/06/25 00:30:14;;;;;;;6.60;3.28;;;21.10;72.70;;;;;;5036355;28;20032;-65
2022/06/25 00:32:40;;;;;;;5.88;3.10;;;21.00;72.60;;;;;;5037804;28;20029;-66
2022/06/25 00:35:06;;;;;;;7.88;3.47;;;21.10;72.70;;;;;;5045689;28;20063;-65
2022/06/25 00:37:32;;;;;;;5.47;2.83;;;21.10;72.60;;;;;;5042196;28;20032;-65
2022/06/25 00:39:57;;;;;;;6.30;2.60;;;21.10;72.60;;;;;;5048431;28;20043;-65
2022/06/25 00:42:23;;;;;;;5.90;2.70;;;21.10;73.10;;;;;;5040472;28;20043;-65
2022/06/25 00:44:49;;;;;;;7.10;3.25;;;21.10;72.30;;;;;;5044467;28;20087;-65
2022/06/25 00:47:15;;;;;;;6.50;3.17;;;21.10;72.30;;;;;;5052524;28;20454;-65
2022/06/25 00:49:41;;;;;;;6.80;3.28;;;21.10;72.20;;;;;;5053908;28;20430;-65
2022/06/25 00:52:16;;;;;;;7.45;3.17;;;21.10;72.00;;;;;;5042648;28;20047;-65
2022/06/25 00:54:49;;;;;;;6.72;3.55;;;21.10;71.90;;;;;;5043817;28;20108;-65
2022/06/25 00:57:19;;;;;;;6.85;3.85;;;21.10;71.90;;;;;;5049101;28;20476;-65
2022/06/25 00:59:50;;;;;;;6.07;3.25;;;21.10;71.90;;;;;;5052819;28;20438;-65
2022/06/25 01:02:15;;;;;;;5.78;3.17;;;21.10;71.80;;;;;;5041038;28;20037;-65
2022/06/25 01:04:41;;;;;;;7.15;3.08;;;21.10;71.80;;;;;;5042467;28;20095;-65
2022/06/25 01:07:08;;;;;;;7.85;3.38;;;21.10;72.50;;;;;;5047369;28;20078;-65
2022/06/25 01:09:34;;;;;;;6.22;3.13;;;21.10;71.80;;;;;;5042823;28;20124;-65
2022/06/25 01:12:00;;;;;;;6.40;3.08;;;21.10;71.80;;;;;;5040682;28;20355;-65
2022/06/25 01:14:26;;;;;;;5.50;2.60;;;21.10;71.70;;;;;;5051073;28;20535;-65
2022/06/25 01:16:52;;;;;;;6.07;2.67;;;21.10;71.70;;;;;;5039243;28;20079;-65
2022/06/25 01:19:18;;;;;;;6.07;2.65;;;21.00;71.70;;;;;;5052421;28;20063;-65
2022/06/25 01:21:44;;;;;;;6.85;3.17;;;21.10;71.70;;;;;;5048255;28;20029;-65
2022/06/25 01:24:11;;;;;;;5.57;2.75;;;21.00;71.60;;;;;;5045996;28;20373;-66
2022/06/25 01:26:41;;;;;;;5.28;2.75;;;21.00;71.60;;;;;;5056368;28;20166;-65
2022/06/25 01:29:08;;;;;;;5.60;2.72;;;21.00;71.60;;;;;;5041112;28;20025;-65
2022/06/25 01:31:34;;;;;;;6.88;3.17;;;21.00;71.50;;;;;;5049835;28;20033;-65
2022/06/25 01:34:01;;;;;;;4.35;2.38;;;21.00;71.60;;;;;;5024557;28;20426;-66
2022/06/25 01:36:26;;;;;;;5.75;2.95;;;21.00;71.60;;;;;;5046970;28;20017;-66
2022/06/25 01:38:53;;;;;;;4.93;2.63;;;20.90;71.60;;;;;;5049940;28;20045;-69
2022/06/25 01:41:19;;;;;;;5.53;2.90;;;21.00;71.70;;;;;;5046764;28;20067;-70
2022/06/25 01:43:46;;;;;;;6.68;3.00;;;21.00;72.30;;;;;;5041421;28;20029;-65
2022/06/25 01:46:12;;;;;;;5.80;3.20;;;21.00;71.70;;;;;;5040572;28;20035;-65
2022/06/25 01:48:39;;;;;;;5.43;2.67;;;20.90;71.60;;;;;;5046894;28;20029;-65
2022/06/25 01:51:04;;;;;;;5.88;2.90;;;20.90;71.60;;;;;;5049136;28;20409;-65
2022/06/25 01:53:30;;;;;;;6.45;2.90;;;20.90;71.60;;;;;;5042586;28;20049;-65
2022/06/25 01:55:56;;;;;;;6.25;3.28;;;20.90;71.60;;;;;;5052604;28;20029;-63
2022/06/25 01:58:23;;;;;;;6.82;3.40;;;20.90;71.70;;;;;;5040368;28;20021;-65
2022/06/25 02:00:49;;;;;;;6.25;3.13;;;20.90;71.90;;;;;;5024486;28;20029;-65
2022/06/25 02:03:15;;;;;;;6.00;3.05;;;20.90;71.90;;;;;;5044802;28;20066;-65
2022/06/25 02:05:57;;;;;;;6.28;3.35;;;20.80;71.80;;;;;;5049124;28;20354;-65
2022/06/25 02:08:33;;;;;;;6.47;2.97;;;20.80;71.90;;;;;;5043243;28;20100;-65
2022/06/25 02:11:01;;;;;;;6.18;3.70;;;20.80;71.90;;;;;;5046200;28;20037;-65
2022/06/25 02:13:26;;;;;;;6.03;3.45;;;20.80;71.90;;;;;;5043784;28;20136;-65
2022/06/25 02:15:53;;;;;;;5.85;3.03;;;20.80;72.00;;;;;;5052113;28;20072;-65
2022/06/25 02:18:19;;;;;;;6.03;3.28;;;20.80;71.90;;;;;;5049023;28;20374;-65
2022/06/25 02:20:45;;;;;;;5.45;3.13;;;20.80;71.90;;;;;;5028583;28;20370;-65
2022/06/25 02:23:12;;;;;;;6.22;3.15;;;20.70;72.60;;;;;;5043173;28;20416;-65
2022/06/25 02:25:38;;;;;;;5.95;3.05;;;20.70;71.90;;;;;;5049199;28;20267;-65
2022/06/25 02:28:05;;;;;;;5.28;2.80;;;20.70;71.90;;;;;;5038523;28;20033;-64
2022/06/25 02:30:31;;;;;;;6.22;2.85;;;20.70;72.00;;;;;;5051274;28;20021;-64
2022/06/25 02:33:01;;;;;;;6.13;3.38;;;20.70;72.00;;;;;;5048256;28;20014;-64
2022/06/25 02:35:27;;;;;;;4.93;2.60;;;20.70;72.10;;;;;;5032690;28;20024;-64
2022/06/25 02:37:53;;;;;;;8.90;3.28;;;20.70;72.20;;;;;;5038648;28;20020;-64
2022/06/25 02:40:21;;;;;;;6.20;2.95;;;20.70;72.10;;;;;;5052430;28;20025;-64
2022/06/25 02:42:46;;;;;;;6.35;3.00;;;20.70;72.10;;;;;;5048514;28;20438;-64
2022/06/25 02:45:12;;;;;;;6.85;3.10;;;20.70;72.10;;;;;;5038360;28;20029;-64
2022/06/25 02:47:44;;;;;;;5.07;2.92;;;20.60;72.10;;;;;;5029251;28;20115;-64
2022/06/25 02:50:11;;;;;;;6.75;3.00;;;20.60;72.20;;;;;;5037304;28;20400;-65
2022/06/25 02:52:38;;;;;;;5.70;3.20;;;20.60;72.20;;;;;;5049066;28;20028;-64
2022/06/25 02:55:06;;;;;;;6.07;2.75;;;20.60;72.20;;;;;;5048077;28;20017;-66
2022/06/25 03:00:25;;;;;;;5.80;2.72;;;20.50;72.00;;;;;;5035594;28;20025;-64
2022/06/25 03:02:50;;;;;;;5.88;3.03;;;20.50;72.00;;;;;;5032823;28;20457;-64
2022/06/25 03:05:16;;;;;;;6.03;2.70;;;20.50;72.00;;;;;;5045420;28;20108;-63
2022/06/25 03:07:42;;;;;;;4.53;2.33;;;20.60;72.00;;;;;;5040357;28;20328;-68
2022/06/25 03:10:08;;;;;;;5.53;2.55;;;20.50;71.90;;;;;;5037960;28;20116;-68
2022/06/25 03:12:35;;;;;;;5.05;2.67;;;20.50;72.00;;;;;;5034469;28;20112;-68
2022/06/25 03:15:15;;;;;;;6.13;2.65;;;20.50;72.10;;;;;;5017767;28;20049;-68
2022/06/25 03:17:42;;;;;;;6.55;2.67;;;20.50;72.10;;;;;;5033694;28;20029;-67
2022/06/25 03:20:26;;;;;;;5.50;2.50;;;20.50;72.10;;;;;;5033083;28;20115;-67
2022/06/25 03:22:55;;;;;;;6.65;2.63;;;20.50;72.20;;;;;;5031765;28;20025;-68
2022/06/25 03:25:23;;;;;;;6.25;3.05;;;20.50;72.10;;;;;;5032067;28;20048;-68
2022/06/25 03:27:49;;;;;;;6.47;2.78;;;20.50;72.10;;;;;;5043112;28;20074;-68
2022/06/25 03:30:16;;;;;;;5.43;3.10;;;20.50;72.10;;;;;;5031645;28;20447;-68
2022/06/25 03:32:42;;;;;;;5.85;2.95;;;20.40;72.20;;;;;;5015653;28;20028;-68
2022/06/25 03:35:43;;;;;;;6.38;2.45;;;20.40;72.20;;;;;;5028441;28;20378;-68
2022/06/25 03:38:23;;;;;;;5.65;2.30;;;20.40;72.80;;;;;;5036872;28;20013;-68
2022/06/25 03:41:32;;;;;;;5.60;2.55;;;20.30;72.10;;;;;;5018894;28;20473;-68
2022/06/25 03:43:36;;;;;;;6.65;2.90;;;20.30;72.00;;;;;;5043440;28;20033;-68
2022/06/25 03:46:02;;;;;;;6.15;2.70;;;20.30;72.00;;;;;;5019112;28;20067;-68
2022/06/25 03:48:27;;;;;;;4.57;2.55;;;20.30;71.90;;;;;;5016687;28;20596;-68
2022/06/25 03:51:13;;;;;;;6.75;2.85;;;20.30;72.00;;;;;;5035162;28;20059;-68
2022/06/25 03:53:39;;;;;;;6.63;3.00;;;20.30;72.10;;;;;;5042078;28;20029;-68
2022/06/25 03:56:05;;;;;;;5.97;2.70;;;20.30;72.10;;;;;;5020544;28;20374;-68
2022/06/25 03:58:37;;;;;;;5.97;2.80;;;20.30;72.10;;;;;;5042460;28;20026;-68
2022/06/25 04:01:04;;;;;;;6.45;2.90;;;20.30;72.20;;;;;;5037757;28;20044;-68
2022/06/25 04:03:30;;;;;;;6.20;3.08;;;20.30;72.20;;;;;;5036281;28;20029;-68
2022/06/25 04:06:03;;;;;;;5.35;2.58;;;20.30;72.20;;;;;;5039454;28;20052;-68
2022/06/25 04:08:37;;;;;;;5.35;2.83;;;20.30;72.20;;;;;;5036718;28;20108;-68
2022/06/25 04:11:05;;;;;;;4.45;2.42;;;20.30;72.20;;;;;;5022719;28;20025;-67
2022/06/25 04:13:32;;;;;;;10.00;2.53;;;20.30;72.30;;;;;;5038644;28;20025;-68
2022/06/25 04:15:57;;;;;;;5.78;2.75;;;20.30;72.40;;;;;;5045514;28;20098;-67
2022/06/25 04:18:23;;;;;;;6.57;2.60;;;20.30;72.30;;;;;;5039261;28;20174;-67
2022/06/25 04:20:49;;;;;;;5.70;2.70;;;20.30;72.30;;;;;;5040459;28;20020;-67
2022/06/25 04:23:15;;;;;;;6.43;3.15;;;20.30;72.20;;;;;;5046075;28;20339;-67
2022/06/25 04:25:42;;;;;;;7.00;3.35;;;20.30;72.30;;;;;;5026234;28;20025;-67
2022/06/25 04:30:53;;;;;;;6.05;2.85;;;20.30;72.10;;;;;;5051826;28;20462;-67
2022/06/25 04:33:18;;;;;;;5.10;2.78;;;20.30;72.10;;;;;;5051207;28;20036;-67
2022/06/25 04:35:58;;;;;;;6.60;3.13;;;20.30;72.00;;;;;;5033909;28;20031;-67
2022/06/25 04:38:44;;;;;;;7.25;2.63;;;20.30;72.60;;;;;;5048137;28;20415;-67
2022/06/25 04:41:10;;;;;;;6.22;2.92;;;20.40;72.00;;;;;;5042848;28;20033;-67
2022/06/25 04:43:36;;;;;;;5.90;3.00;;;20.40;71.90;;;;;;5054432;28;20029;-67
2022/06/25 04:46:05;;;;;;;5.70;3.03;;;20.40;71.90;;;;;;5047471;28;20615;-67
2022/06/25 04:48:36;;;;;;;8.32;3.25;;;20.40;71.90;;;;;;5052028;28;20029;-67
2022/06/25 04:51:23;;;;;;;5.22;2.58;;;20.40;71.70;;;;;;5049578;28;20022;-67
2022/06/25 04:53:55;;;;;;;5.57;2.90;;;20.40;71.70;;;;;;5040752;28;20078;-67
2022/06/25 04:56:29;;;;;;;5.40;3.03;;;20.50;71.70;;;;;;5026196;28;20138;-67
2022/06/25 04:58:56;;;;;;;6.30;3.15;;;20.50;71.60;;;;;;5054548;28;20036;-67
2022/06/25 05:01:57;;;;;;;7.65;3.10;;;20.50;71.60;;;;;;5042148;28;20122;-67
2022/06/25 05:04:39;;;;;;;5.50;2.75;;;20.60;71.50;;;;;;5049335;28;20021;-67
2022/06/25 05:07:05;;;;;;;8.13;3.03;;;20.70;71.30;;;;;;5034064;28;20044;-67
2022/06/25 05:09:31;;;;;;;6.57;2.92;;;20.70;71.00;;;;;;5044956;28;20453;-67
2022/06/25 05:11:58;;;;;;;6.60;3.03;;;20.80;70.80;;;;;;5050400;28;20027;-67
2022/06/25 05:14:24;;;;;;;8.75;3.17;;;21.30;70.10;;;;;;5045825;28;20021;-67
2022/06/25 05:16:49;;;;;;;7.07;3.30;;;22.10;68.40;;;;;;5029673;28;20029;-67
2022/06/25 05:19:16;;;;;;;6.85;2.90;;;22.50;67.40;;;;;;5046101;28;20017;-67
2022/06/25 05:21:43;;;;;;;7.22;2.97;;;22.60;66.90;;;;;;5043782;28;20040;-67
2022/06/25 05:24:09;;;;;;;5.47;3.08;;;22.60;66.80;;;;;;5042182;28;20036;-67
2022/06/25 05:26:35;;;;;;;7.20;3.20;;;22.50;67.00;;;;;;5046361;28;20467;-66
2022/06/25 05:29:01;;;;;;;9.10;3.13;;;22.50;66.90;;;;;;5053023;28;20362;-67
2022/06/25 05:31:27;;;;;;;5.93;3.10;;;22.50;67.10;;;;;;5026938;28;20029;-67
2022/06/25 05:33:53;;;;;;;5.03;3.00;;;22.50;67.10;;;;;;5047278;28;20509;-66
2022/06/25 05:36:19;;;;;;;5.90;3.03;;;22.40;67.00;;;;;;5038476;28;20072;-67
2022/06/25 05:38:45;;;;;;;6.20;3.03;;;22.40;67.00;;;;;;5025919;28;20439;-67
2022/06/25 05:41:10;;;;;;;6.95;2.88;;;22.50;66.90;;;;;;5046943;28;20082;-67
2022/06/25 05:43:37;;;;;;;7.57;3.10;;;22.60;66.80;;;;;;5039860;28;20021;-66
2022/06/25 05:46:03;;;;;;;6.30;3.00;;;22.60;66.60;;;;;;5032882;28;20129;-66
2022/06/25 05:48:29;;;;;;;5.90;2.90;;;22.70;66.50;;;;;;5027598;28;20457;-67
2022/06/25 05:50:56;;;;;;;6.40;2.92;;;22.70;66.30;;;;;;5042563;28;20037;-68
2022/06/25 05:53:21;;;;;;;5.82;3.05;;;22.70;66.20;;;;;;5045546;28;20461;-68
2022/06/25 05:55:47;;;;;;;5.55;2.88;;;22.60;66.20;;;;;;5038460;28;20021;-68
2022/06/25 05:58:13;;;;;;;7.07;2.78;;;22.50;66.40;;;;;;5039913;28;20021;-66
2022/06/25 06:00:39;;;;;;;7.03;3.10;;;22.40;66.60;;;;;;5039092;28;20025;-65
2022/06/25 06:03:05;;;;;;;5.82;2.65;;;22.30;66.70;;;;;;5040161;28;20021;-66
2022/06/25 06:05:31;;;;;;;5.32;2.67;;;22.30;66.70;;;;;;5035160;28;20021;-65
2022/06/25 06:07:56;;;;;;;7.40;3.17;;;22.30;66.60;;;;;;5037127;28;20120;-66
2022/06/25 06:10:22;;;;;;;7.15;3.05;;;22.40;66.50;;;;;;5041842;28;20025;-65
2022/06/25 06:12:47;;;;;;;5.97;3.20;;;22.50;66.10;;;;;;5046642;28;20029;-65
2022/06/25 06:15:13;;;;;;;6.22;2.95;;;22.60;65.70;;;;;;5043240;28;20049;-65
2022/06/25 06:17:39;;;;;;;7.85;2.70;;;22.80;65.50;;;;;;5034765;28;20039;-64
2022/06/25 06:20:06;;;;;;;6.60;3.17;;;22.90;65.40;;;;;;5039385;28;20508;-65
2022/06/25 06:22:31;;;;;;;5.53;2.67;;;23.00;64.90;;;;;;5030536;28;20036;-65
2022/06/25 06:24:57;;;;;;;5.68;2.80;;;23.10;64.60;;;;;;5049164;28;20419;-65
2022/06/25 06:27:22;;;;;;;5.72;2.50;;;23.20;64.20;;;;;;5043769;28;20343;-66
2022/06/25 06:29:48;;;;;;;5.22;2.58;;;23.30;63.70;;;;;;5044956;28;20048;-66
2022/06/25 06:32:14;;;;;;;6.35;2.30;;;23.50;63.40;;;;;;5053971;28;20064;-66
2022/06/25 06:34:41;;;;;;;5.60;2.55;;;23.60;63.20;;;;;;5051672;28;20017;-65
2022/06/25 06:37:07;;;;;;;7.43;2.40;;;23.70;62.90;;;;;;5041636;28;20435;-65
2022/06/25 06:39:32;;;;;;;3.97;2.08;;;23.80;62.60;;;;;;5043407;28;20036;-65
2022/06/25 06:41:58;;;;;;;5.68;2.25;;;23.90;62.50;;;;;;5053839;28;20037;-66
2022/06/25 06:44:24;;;;;;;6.30;2.50;;;24.10;62.30;;;;;;5052715;28;20021;-66
2022/06/25 06:46:49;;;;;;;5.20;2.40;;;24.20;61.90;;;;;;5040577;28;20434;-66
2022/06/25 06:49:15;;;;;;;5.80;2.45;;;24.20;61.70;;;;;;5041715;28;20037;-66
2022/06/25 06:51:41;;;;;;;5.10;2.55;;;24.30;61.70;;;;;;5045774;28;20020;-66
2022/06/25 06:54:06;;;;;;;6.93;2.72;;;24.40;61.40;;;;;;5045070;28;20028;-66
2022/06/25 06:56:32;;;;;;;5.20;2.40;;;24.50;61.10;;;;;;5047883;28;20027;-66
2022/06/25 06:58:58;;;;;;;4.97;2.40;;;24.40;61.00;;;;;;5043491;28;20111;-67
2022/06/25 07:01:23;;;;;;;5.55;2.45;;;24.50;61.00;;;;;;5049579;28;20064;-66
2022/06/25 07:03:49;;;;;;;5.40;2.60;;;24.50;61.00;;;;;;5048348;28;20461;-66
2022/06/25 07:06:15;;;;;;;4.30;2.10;;;24.60;60.80;;;;;;5048620;28;20049;-66
2022/06/25 07:08:40;;;;;;;5.53;2.42;;;24.60;60.70;;;;;;5037713;28;20068;-66
2022/06/25 07:11:28;;;;;;;5.20;2.10;;;24.80;60.30;;;;;;5036145;28;20045;-67
2022/06/25 07:13:53;;;;;;;7.20;2.17;;;24.90;60.70;;;;;;5038720;28;20025;-67
2022/06/25 07:16:19;;;;;;;4.78;1.92;;;25.10;60.10;;;;;;5038060;28;20047;-67
2022/06/25 07:18:45;;;;;;;6.78;2.45;;;25.00;59.30;;;;;;5042709;28;20112;-66
2022/06/25 07:21:11;;;;;;;5.53;2.35;;;24.90;59.40;;;;;;5047437;28;20117;-65
2022/06/25 07:23:36;;;;;;;8.73;2.10;;;25.00;59.30;;;;;;5040135;28;20119;-66
2022/06/25 07:26:02;;;;;;;4.93;2.20;;;25.10;58.90;;;;;;5039169;28;20034;-66
2022/06/25 07:28:27;;;;;;;4.43;1.85;;;25.20;58.80;;;;;;5035036;28;20067;-66
2022/06/25 07:30:53;;;;;;;5.72;1.98;;;25.30;58.50;;;;;;5037536;28;20091;-66
2022/06/25 07:33:19;;;;;;;6.25;2.05;;;25.50;58.10;;;;;;5037320;28;20430;-66
2022/06/25 07:35:45;;;;;;;7.20;2.30;;;25.40;58.10;;;;;;5035011;28;20022;-65
2022/06/25 07:38:11;;;;;;;4.65;2.20;;;25.30;58.30;;;;;;5039650;28;20028;-66
2022/06/25 07:40:36;;;;;;;4.32;1.98;;;25.70;58.00;;;;;;5054890;28;20020;-66
2022/06/25 07:43:02;;;;;;;5.55;2.08;;;25.80;57.60;;;;;;5053806;28;20121;-66
2022/06/25 07:45:28;;;;;;;6.30;1.90;;;25.80;57.50;;;;;;5046747;28;20098;-66
2022/06/25 07:47:54;;;;;;;4.38;2.03;;;25.90;57.40;;;;;;5053312;28;20029;-66
2022/06/25 07:53:04;;;;;;;4.72;2.03;;;26.00;57.40;;;;;;5051943;28;20043;-66
2022/06/25 07:55:29;;;;;;;4.70;1.98;;;25.80;57.30;;;;;;5047089;28;20033;-66
2022/06/25 07:57:55;;;;;;;3.95;1.70;;;25.70;57.20;;;;;;5054385;28;20028;-66
2022/06/25 08:00:22;;;;;;;5.18;1.85;;;25.70;57.20;;;;;;5047762;28;20029;-66
2022/06/25 08:02:48;;;;;;;4.55;1.90;;;25.90;57.20;;;;;;5052245;28;20048;-67
2022/06/25 08:05:14;;;;;;;4.80;2.03;;;26.00;57.10;;;;;;5044932;28;20037;-67
2022/06/25 08:07:40;;;;;;;4.20;1.85;;;26.20;57.00;;;;;;5043302;28;20025;-67
2022/06/25 08:10:06;;;;;;;5.43;2.03;;;26.20;56.70;;;;;;5037864;28;20120;-66
2022/06/25 08:12:32;;;;;;;4.53;1.92;;;26.00;56.80;;;;;;5044830;28;20029;-66
2022/06/25 08:14:59;;;;;;;4.50;1.90;;;25.70;57.30;;;;;;5044199;28;20382;-66
2022/06/25 08:17:25;;;;;;;3.80;1.67;;;25.50;57.80;;;;;;5056597;28;20359;-66
2022/06/25 08:19:51;;;;;;;3.03;1.50;;;25.40;57.80;;;;;;5049315;28;20029;-66
2022/06/25 08:22:17;;;;;;;3.78;1.63;;;25.30;57.90;;;;;;5049502;28;20025;-66
2022/06/25 08:24:43;;;;;;;4.00;1.83;;;25.50;57.60;;;;;;5040540;28;20373;-70
2022/06/25 08:27:10;;;;;;;6.05;2.00;;;25.60;57.30;;;;;;5048011;28;21243;-65
2022/06/25 08:29:36;;;;;;;3.80;1.65;;;25.80;57.10;;;;;;5042338;28;20455;-71
2022/06/25 08:32:03;;;;;;;2.72;1.35;;;26.00;56.40;;;;;;5041042;28;20029;-67
2022/06/25 08:34:28;;;;;;;4.38;1.50;;;25.90;56.10;;;;;;5053367;28;20029;-66
2022/06/25 08:36:54;;;;;;;3.38;1.50;;;26.00;56.10;;;;;;5046237;28;20502;-65
2022/06/25 08:39:20;;;;;;;2.47;1.15;;;26.20;55.90;;;;;;5049406;28;20028;-65
2022/06/25 08:41:46;;;;;;;2.70;1.23;;;26.40;55.70;;;;;;5049659;28;20440;-65
2022/06/25 08:44:12;;;;;;;4.30;1.30;;;26.70;54.90;;;;;;5046434;28;20102;-63
2022/06/25 08:46:37;;;;;;;4.22;1.25;;;26.90;54.50;;;;;;5053595;28;20048;-64
2022/06/25 08:49:03;;;;;;;2.35;1.30;;;27.20;54.30;;;;;;5052162;28;20493;-63
2022/06/25 08:51:32;;;;;;;2.22;1.20;;;27.30;53.50;;;;;;5049560;28;20021;-63
2022/06/25 08:53:59;;;;;;;3.03;1.30;;;27.30;53.20;;;;;;5039995;28;20108;-64
2022/06/25 08:56:26;;;;;;;2.63;1.20;;;27.40;53.10;;;;;;5052485;28;20032;-64
2022/06/25 08:58:51;;;;;;;1.92;1.20;;;27.50;53.30;;;;;;5052982;28;20029;-64
2022/06/25 09:01:17;;;;;;;3.00;1.35;;;27.60;53.10;;;;;;5046250;28;20052;-63
2022/06/25 09:03:43;;;;;;;3.47;1.20;;;27.80;52.90;;;;;;5042958;28;20029;-64
2022/06/25 09:06:14;;;;;;;2.95;1.20;;;27.70;52.90;;;;;;5043482;28;20032;-65
2022/06/25 09:08:42;;;;;;;5.00;1.30;;;27.60;52.90;;;;;;5043256;28;20025;-64
2022/06/25 09:11:07;;;;;;;2.72;1.30;;;27.40;53.10;;;;;;5051228;28;20152;-64
2022/06/25 09:13:33;;;;;;;6.07;1.38;;;27.20;53.40;;;;;;5050410;28;20067;-64
2022/06/25 09:15:59;;;;;;;3.20;1.50;;;27.00;53.30;;;;;;5055551;28;20044;-63
2022/06/25 09:18:25;;;;;;;3.65;1.70;;;26.70;53.70;;;;;;5039947;28;20026;-64
2022/06/25 09:20:56;;;;;;;2.50;1.35;;;26.40;54.80;;;;;;5042431;28;20017;-63
2022/06/25 09:23:22;;;;;;;;;;;26.10;54.70;;;;;;5045923;28;20445;-64
2022/06/25 09:26:03;;;;;;;3.15;1.42;;;25.80;55.40;;;;;;5050056;28;19952;-64
2022/06/25 09:28:31;;;;;;;4.00;1.25;;;25.50;56.00;;;;;;5045978;28;20026;-63
2022/06/25 09:30:57;;;;;;;3.15;1.35;;;25.30;56.20;;;;;;5041326;28;20179;-63
2022/06/25 09:33:23;;;;;;;3.72;1.35;;;25.20;57.00;;;;;;5045874;28;20451;-63
2022/06/25 09:35:51;;;;;;;2.90;1.40;;;25.10;56.60;;;;;;5039784;28;20025;-64
2022/06/25 09:38:17;;;;;;;4.25;1.42;;;25.00;56.90;;;;;;5036057;28;20025;-63
2022/06/25 09:40:51;;;;;;;3.13;1.20;;;24.90;57.00;;;;;;5039731;28;20030;-64
2022/06/25 09:43:20;;;;;;;2.67;1.10;;;24.80;56.90;;;;;;5052370;28;20353;-63
2022/06/25 09:45:47;;;;;;;3.65;1.42;;;24.70;57.20;;;;;;5052417;28;20017;-63
2022/06/25 09:48:25;;;;;;;3.50;1.23;;;24.60;57.30;;;;;;5052814;28;20438;-64
2022/06/25 09:51:20;;;;;;;5.85;1.38;;;24.50;57.30;;;;;;5050936;28;20029;-64
2022/06/25 09:53:46;;;;;;;4.30;1.40;;;24.50;57.60;;;;;;5044734;28;20032;-64
2022/06/25 09:56:22;;;;;;;3.17;1.40;;;24.40;57.80;;;;;;5051368;28;20048;-65
2022/06/25 09:58:49;;;;;;;3.72;1.52;;;24.40;58.00;;;;;;5043919;28;20450;-65
2022/06/25 10:01:18;;;;;;;3.55;1.58;;;24.40;58.00;;;;;;5041876;28;20025;-64
2022/06/25 10:03:45;;;;;;;4.30;1.45;;;24.30;58.30;;;;;;5036795;28;20026;-64
2022/06/25 10:06:14;;;;;;;3.75;1.45;;;24.30;58.30;;;;;;5043693;28;20079;-65
2022/06/25 10:08:42;;;;;;;3.88;1.80;;;24.20;58.50;;;;;;5053801;28;20029;-64
2022/06/25 10:11:10;;;;;;;4.72;1.50;;;24.20;58.90;;;;;;5045722;28;20083;-65
2022/06/25 10:13:36;;;;;;;3.95;1.50;;;24.20;59.00;;;;;;5042187;28;20093;-65
2022/06/25 10:16:03;;;;;;;2.75;1.50;;;24.20;59.00;;;;;;5039775;28;20223;-65
2022/06/25 10:18:29;;;;;;;3.50;1.50;;;24.30;58.90;;;;;;5044542;28;20032;-64
2022/06/25 10:20:56;;;;;;;3.13;1.67;;;24.30;58.60;;;;;;5037989;28;21330;-64
2022/06/25 10:23:22;;;;;;;5.10;1.83;;;24.40;58.60;;;;;;5043121;28;20075;-64
2022/06/25 10:25:48;;;;;;;5.25;1.80;;;24.40;58.60;;;;;;5038894;28;20112;-65
2022/06/25 10:28:16;;;;;;;3.30;1.60;;;24.40;58.50;;;;;;5037210;28;20033;-64
2022/06/25 10:30:54;;;;;;;3.50;1.23;;;24.50;58.50;;;;;;5045107;28;20030;-63
2022/06/25 10:33:21;;;;;;;4.32;1.30;;;24.50;58.30;;;;;;5036893;28;20032;-65
2022/06/25 10:35:49;;;;;;;2.42;1.30;;;24.60;58.40;;;;;;5048390;28;20040;-64
2022/06/25 10:38:21;;;;;;;3.00;1.33;;;24.80;58.00;;;;;;5038755;28;20017;-64
2022/06/25 10:40:48;;;;;;;3.90;1.70;;;25.00;57.70;;;;;;5039547;28;20470;-65
2022/06/25 10:43:40;;;;;;;3.95;1.50;;;25.10;57.60;;;;;;5029940;28;20112;-65
2022/06/25 10:46:36;;;;;;;4.07;1.70;;;25.10;57.50;;;;;;5047144;28;20032;-64
2022/06/25 10:49:18;;;;;;;3.88;1.70;;;24.90;57.70;;;;;;5045154;28;20053;-65
2022/06/25 10:51:49;;;;;;;3.95;1.73;;;24.80;57.90;;;;;;5049697;28;20047;-65
2022/06/25 10:54:24;;;;;;;3.70;1.75;;;24.70;58.10;;;;;;5041639;28;20032;-65
2022/06/25 10:56:52;;;;;;;3.35;1.50;;;24.50;58.30;;;;;;5044890;28;20073;-64
2022/06/25 10:59:48;;;;;;;3.97;1.70;;;24.40;58.70;;;;;;5044388;28;20116;-64
2022/06/25 11:02:17;;;;;;;3.78;1.48;;;24.40;58.70;;;;;;5044709;28;20108;-64
2022/06/25 11:04:54;;;;;;;3.67;1.67;;;24.30;59.10;;;;;;5024569;28;20124;-65
2022/06/25 11:07:22;;;;;;;4.25;1.83;;;24.30;59.20;;;;;;5048134;28;20091;-65
2022/06/25 11:09:57;;;;;;;6.25;1.60;;;24.30;59.10;;;;;;5047089;28;20032;-64
2022/06/25 11:12:24;;;;;;;7.05;1.95;;;24.30;59.10;;;;;;5040086;28;20025;-66
2022/06/25 11:15:04;;;;;;;3.88;1.70;;;24.30;59.10;;;;;;5042921;28;20037;-64
2022/06/25 11:17:31;;;;;;;3.60;1.53;;;24.30;59.00;;;;;;5041053;28;20036;-64
2022/06/25 11:20:11;;;;;;;2.88;1.65;;;24.30;59.30;;;;;;5020563;28;20053;-64
2022/06/25 11:22:47;;;;;;;5.35;1.80;;;24.30;59.70;;;;;;5049599;28;20037;-63
2022/06/25 11:30:43;;;;;;;3.00;1.50;;;24.20;59.70;;;;;;5040423;28;20037;-64
2022/06/25 11:33:11;;;;;;;4.40;1.70;;;24.30;59.80;;;;;;5044660;28;20033;-65
2022/06/25 11:35:44;;;;;;;3.05;1.50;;;24.30;59.80;;;;;;5039545;28;20025;-64
2022/06/25 11:38:14;;;;;;;3.40;1.70;;;24.40;59.60;;;;;;5036984;28;20036;-64
2022/06/25 11:40:40;;;;;;;3.88;1.98;;;24.50;59.40;;;;;;5040812;28;20439;-64
2022/06/25 11:43:07;;;;;;;5.13;1.73;;;24.60;59.20;;;;;;5045677;28;20074;-65
2022/06/25 11:45:32;;;;;;;4.15;1.67;;;24.70;58.90;;;;;;5045943;28;20025;-65
2022/06/25 11:47:58;;;;;;;7.18;2.30;;;24.90;58.50;;;;;;5051436;28;20035;-65
2022/06/25 11:50:24;;;;;;;4.20;1.63;;;25.00;58.10;;;;;;5040927;28;20451;-65
2022/06/25 11:52:50;;;;;;;4.30;1.85;;;25.30;58.10;;;;;;5037882;28;20069;-65
2022/06/25 11:55:15;;;;;;;4.95;1.80;;;25.60;57.70;;;;;;5044125;28;20021;-65
2022/06/25 11:57:45;;;;;;;4.03;1.50;;;25.70;57.30;;;;;;5047218;28;20108;-65
2022/06/25 12:00:13;;;;;;;3.38;1.50;;;25.70;57.20;;;;;;5050333;28;20403;-65
2022/06/25 12:02:42;;;;;;;6.32;1.70;;;25.80;57.30;;;;;;5046538;28;20043;-65
2022/06/25 12:05:09;;;;;;;4.32;1.70;;;25.80;57.00;;;;;;5037673;28;20056;-65
2022/06/25 12:07:35;;;;;;;4.43;1.67;;;26.00;56.80;;;;;;5035802;28;20038;-64
2022/06/25 12:10:09;;;;;;;3.85;1.60;;;26.10;56.70;;;;;;5040521;28;20039;-65
2022/06/25 12:12:37;;;;;;;3.90;1.75;;;26.10;56.50;;;;;;5043297;28;20032;-65
2022/06/25 12:15:03;;;;;;;4.65;1.50;;;26.10;56.40;;;;;;5050036;28;20049;-64
2022/06/25 12:17:37;;;;;;;3.55;1.70;;;25.90;56.20;;;;;;5039598;28;20101;-64
2022/06/25 12:20:06;;;;;;;2.15;1.35;;;25.90;56.40;;;;;;5041832;28;20091;-64
2022/06/25 12:22:32;;;;;;;2.97;1.33;;;26.00;56.40;;;;;;5042182;28;20358;-64
2022/06/25 12:25:02;;;;;;;4.68;1.48;;;26.10;56.00;;;;;;5054296;28;20032;-65
2022/06/25 12:27:28;;;;;;;4.20;1.55;;;26.00;56.00;;;;;;5045200;28;20049;-63
2022/06/25 12:29:56;;;;;;;4.05;1.58;;;25.90;56.30;;;;;;5057767;28;20040;-63
2022/06/25 12:32:40;;;;;;;5.47;2.13;;;25.90;57.00;;;;;;5047511;28;20389;-64
2022/06/25 12:35:23;;;;;;;5.07;2.20;;;25.80;56.60;;;;;;5057593;28;20076;-65
2022/06/25 12:38:06;;;;;;;6.78;2.22;;;25.80;56.70;;;;;;5045885;28;20021;-65
2022/06/25 12:40:43;;;;;;;3.85;1.80;;;25.70;56.80;;;;;;5051887;28;20025;-65
2022/06/25 12:43:10;;;;;;;2.83;1.52;;;25.80;56.70;;;;;;5048277;28;20360;-65
2022/06/25 12:45:37;;;;;;;5.13;1.60;;;25.70;56.70;;;;;;5047806;28;20037;-65
2022/06/25 12:48:04;;;;;;;3.72;1.60;;;25.70;56.90;;;;;;5050790;28;20037;-65
2022/06/25 12:50:32;;;;;;;4.45;1.60;;;25.70;57.10;;;;;;5057274;28;20040;-65
2022/06/25 12:53:07;;;;;;;3.78;1.55;;;25.70;56.80;;;;;;5042293;28;20079;-65
2022/06/25 12:55:32;;;;;;;3.78;1.70;;;25.70;56.90;;;;;;5030742;28;20052;-64
2022/06/25 12:58:06;;;;;;;3.97;1.60;;;25.70;56.90;;;;;;5057156;28;20050;-65
2022/06/25 13:00:34;;;;;;;4.38;1.95;;;25.80;56.60;;;;;;5055378;28;20108;-62
2022/06/25 13:03:00;;;;;;;4.63;1.27;;;25.90;56.20;;;;;;5055612;28;20032;-63
2022/06/25 13:05:25;;;;;;;4.18;1.50;;;25.90;56.00;;;;;;5047182;28;20029;-63
2022/06/25 13:07:51;;;;;;;2.70;1.38;;;25.90;55.90;;;;;;5049916;28;20104;-63